sensor_id;sensor_type;location;lat;lon;timestamp;pressure;altitude;pressure_sealevel;temperature;humidity
13209;BME280;6669;42.678;23.332;2023-04-28T00:00:53;94771.88;;;5.60;100.00
13209;BME280;6669;42.678;23.332;2023-04-28T00:03:21;94775.41;;;5.59;100.00
13209;BME280;6669;42.678;23.332;2023-04-28T00:05:51;94770.81;;;5.52;100.00
13209;BME280;6669;42.678;23.332;2023-04-28T00:08:21;94777.06;;;5.50;100.00
13209;BME280;6669;42.678;23.332;2023-04-28T00:10:52;94776.94;;;5.51;100.00
13209;BME280;6669;42.678;23.332;2023-04-28T00:13:20;94777.19;;;5.48;100.00
13209;BME280;6669;42.678;23.332;2023-04-28T00:15:50;94773.25;;;5.54;100.00
13209;BME280;6669;42.678;23.332;2023-04-28T00:18:18;94762.94;;;5.34;100.00
13209;BME280;6669;42.678;23.332;2023-04-28T00:20:47;94776.81;;;5.33;100.00
13209;BME280;6669;42.678;23.332;2023-04-28T00:23:15;94775.97;;;5.23;100.00
13209;BME280;6669;42.678;23.332;2023-04-28T00:25:43;94770.94;;;5.21;100.00
13209;BME280;6669;42.678;23.332;2023-04-28T00:28:11;94782.88;;;5.22;100.00
13209;BME280;6669;42.678;23.332;2023-04-28T00:30:53;94780.31;;;5.22;100.00
13209;BME280;6669;42.678;23.332;2023-04-28T00:33:21;94777.19;;;5.19;100.00
13209;BME280;6669;42.678;23.332;2023-04-28T00:35:57;94779.63;;;5.11;100.00
13209;BME280;6669;42.678;23.332;2023-04-28T00:38:25;94786.28;;;5.13;100.00
13209;BME280;6669;42.678;23.332;2023-04-28T00:40:53;94791.69;;;5.10;100.00
13209;BME280;6669;42.678;23.332;2023-04-28T00:43:21;94783.53;;;5.05;100.00
13209;BME280;6669;42.678;23.332;2023-04-28T00:45:50;94786.66;;;5.08;100.00
13209;BME280;6669;42.678;23.332;2023-04-28T00:48:20;94785.47;;;5.03;100.00
13209;BME280;6669;42.678;23.332;2023-04-28T00:50:49;94785.84;;;4.98;100.00
13209;BME280;6669;42.678;23.332;2023-04-28T00:53:18;94788.16;;;4.91;100.00
13209;BME280;6669;42.678;23.332;2023-04-28T00:55:47;94795.03;;;4.81;100.00
13209;BME280;6669;42.678;23.332;2023-04-28T00:58:15;94794.34;;;4.79;100.00
13209;BME280;6669;42.678;23.332;2023-04-28T01:00:43;94791.78;;;4.79;100.00
13209;BME280;6669;42.678;23.332;2023-04-28T01:03:11;94786.47;;;4.71;100.00
13209;BME280;6669;42.678;23.332;2023-04-28T01:05:41;94788.38;;;4.69;100.00
13209;BME280;6669;42.678;23.332;2023-04-28T01:08:09;94778.97;;;4.58;100.00
13209;BME280;6669;42.678;23.332;2023-04-28T01:10:42;94798.91;;;4.66;100.00
13209;BME280;6669;42.678;23.332;2023-04-28T01:13:10;94792.91;;;4.55;100.00
13209;BME280;6669;42.678;23.332;2023-04-28T01:15:39;94797.25;;;4.55;100.00
13209;BME280;6669;42.678;23.332;2023-04-28T01:18:07;94804.06;;;4.56;100.00
13209;BME280;6669;42.678;23.332;2023-04-28T01:20:35;94800.53;;;4.57;100.00
13209;BME280;6669;42.678;23.332;2023-04-28T01:23:04;94792.91;;;4.46;100.00
13209;BME280;6669;42.678;23.332;2023-04-28T01:25:34;94809.03;;;4.48;100.00
13209;BME280;6669;42.678;23.332;2023-04-28T01:28:02;94805.78;;;4.46;100.00
13209;BME280;6669;42.678;23.332;2023-04-28T01:30:30;94799.13;;;4.43;100.00
13209;BME280;6669;42.678;23.332;2023-04-28T01:32:57;94802.38;;;4.45;100.00
13209;BME280;6669;42.678;23.332;2023-04-28T01:35:26;94806.56;;;4.46;100.00
13209;BME280;6669;42.678;23.332;2023-04-28T01:37:54;94808.06;;;4.49;100.00
13209;BME280;6669;42.678;23.332;2023-04-28T01:40:22;94796.41;;;4.45;100.00
13209;BME280;6669;42.678;23.332;2023-04-28T01:42:52;94800.41;;;4.58;100.00
13209;BME280;6669;42.678;23.332;2023-04-28T01:45:20;94804.06;;;4.56;100.00
13209;BME280;6669;42.678;23.332;2023-04-28T01:47:47;94803.50;;;4.52;100.00
13209;BME280;6669;42.678;23.332;2023-04-28T01:50:16;94795.59;;;4.44;100.00
13209;BME280;6669;42.678;23.332;2023-04-28T01:52:44;94808.59;;;4.42;100.00
13209;BME280;6669;42.678;23.332;2023-04-28T01:55:12;94808.47;;;4.44;100.00
13209;BME280;6669;42.678;23.332;2023-04-28T01:57:40;94799.38;;;4.40;100.00
13209;BME280;6669;42.678;23.332;2023-04-28T02:00:10;94803.44;;;4.33;100.00
13209;BME280;6669;42.678;23.332;2023-04-28T02:02:38;94809.81;;;4.38;100.00
13209;BME280;6669;42.678;23.332;2023-04-28T02:05:07;94798.53;;;4.30;100.00
13209;BME280;6669;42.678;23.332;2023-04-28T02:07:35;94804.03;;;4.25;100.00
13209;BME280;6669;42.678;23.332;2023-04-28T02:10:03;94809.31;;;4.23;100.00
13209;BME280;6669;42.678;23.332;2023-04-28T02:12:31;94812.16;;;4.20;100.00
13209;BME280;6669;42.678;23.332;2023-04-28T02:14:59;94811.47;;;4.18;100.00
13209;BME280;6669;42.678;23.332;2023-04-28T02:17:30;94813.25;;;4.18;100.00
13209;BME280;6669;42.678;23.332;2023-04-28T02:19:58;94815.09;;;4.16;100.00
13209;BME280;6669;42.678;23.332;2023-04-28T02:22:26;94791.22;;;4.04;100.00
13209;BME280;6669;42.678;23.332;2023-04-28T02:24:54;94813.59;;;4.13;100.00
13209;BME280;6669;42.678;23.332;2023-04-28T02:27:21;94811.31;;;4.10;100.00
13209;BME280;6669;42.678;23.332;2023-04-28T02:29:49;94815.25;;;4.14;100.00
13209;BME280;6669;42.678;23.332;2023-04-28T02:32:18;94811.97;;;4.12;100.00
13209;BME280;6669;42.678;23.332;2023-04-28T02:34:52;94821.88;;;4.17;100.00
13209;BME280;6669;42.678;23.332;2023-04-28T02:37:22;94813.97;;;4.08;100.00
13209;BME280;6669;42.678;23.332;2023-04-28T02:39:50;94830.19;;;4.20;100.00
13209;BME280;6669;42.678;23.332;2023-04-28T02:42:18;94820.31;;;4.25;100.00
13209;BME280;6669;42.678;23.332;2023-04-28T02:44:46;94826.91;;;4.18;100.00
13209;BME280;6669;42.678;23.332;2023-04-28T02:47:14;94834.50;;;4.20;100.00
13209;BME280;6669;42.678;23.332;2023-04-28T02:49:42;94830.03;;;4.22;100.00
13209;BME280;6669;42.678;23.332;2023-04-28T02:52:11;94821.16;;;4.05;100.00
13209;BME280;6669;42.678;23.332;2023-04-28T02:54:39;94834.69;;;4.07;100.00
13209;BME280;6669;42.678;23.332;2023-04-28T02:57:07;94824.16;;;4.10;100.00
13209;BME280;6669;42.678;23.332;2023-04-28T02:59:35;94835.88;;;4.24;100.00
13209;BME280;6669;42.678;23.332;2023-04-28T03:02:03;94843.34;;;4.06;100.00
13209;BME280;6669;42.678;23.332;2023-04-28T03:04:31;94844.09;;;4.18;100.00
13209;BME280;6669;42.678;23.332;2023-04-28T03:07:00;94842.22;;;4.20;100.00
13209;BME280;6669;42.678;23.332;2023-04-28T03:09:29;94839.13;;;4.26;100.00
13209;BME280;6669;42.678;23.332;2023-04-28T03:11:57;94840.19;;;4.23;100.00
13209;BME280;6669;42.678;23.332;2023-04-28T03:14:25;94837.03;;;4.10;100.00
13209;BME280;6669;42.678;23.332;2023-04-28T03:16:53;94843.03;;;4.20;100.00
13209;BME280;6669;42.678;23.332;2023-04-28T03:19:21;94844.78;;;4.20;100.00
13209;BME280;6669;42.678;23.332;2023-04-28T03:21:50;94847.69;;;4.27;100.00
13209;BME280;6669;42.678;23.332;2023-04-28T03:24:18;94849.00;;;4.21;100.00
13209;BME280;6669;42.678;23.332;2023-04-28T03:26:47;94856.41;;;4.14;100.00
13209;BME280;6669;42.678;23.332;2023-04-28T03:29:15;94859.41;;;4.19;100.00
13209;BME280;6669;42.678;23.332;2023-04-28T03:31:43;94873.41;;;4.27;100.00
13209;BME280;6669;42.678;23.332;2023-04-28T03:34:11;94874.22;;;4.27;100.00
13209;BME280;6669;42.678;23.332;2023-04-28T03:36:40;94882.06;;;4.25;100.00
13209;BME280;6669;42.678;23.332;2023-04-28T03:39:08;94886.50;;;4.23;100.00
13209;BME280;6669;42.678;23.332;2023-04-28T03:41:36;94888.16;;;4.24;100.00
13209;BME280;6669;42.678;23.332;2023-04-28T03:44:05;94893.88;;;4.28;100.00
13209;BME280;6669;42.678;23.332;2023-04-28T03:46:33;94897.38;;;4.27;100.00
13209;BME280;6669;42.678;23.332;2023-04-28T03:49:01;94888.03;;;4.26;100.00
13209;BME280;6669;42.678;23.332;2023-04-28T03:51:29;94898.44;;;4.24;100.00
13209;BME280;6669;42.678;23.332;2023-04-28T03:53:58;94884.84;;;4.13;100.00
13209;BME280;6669;42.678;23.332;2023-04-28T03:56:26;94901.28;;;4.21;100.00
13209;BME280;6669;42.678;23.332;2023-04-28T03:58:59;94909.69;;;4.23;100.00
13209;BME280;6669;42.678;23.332;2023-04-28T04:01:38;94911.81;;;4.18;100.00
13209;BME280;6669;42.678;23.332;2023-04-28T04:04:06;94912.75;;;4.17;100.00
13209;BME280;6669;42.678;23.332;2023-04-28T04:06:35;94920.91;;;4.22;100.00
13209;BME280;6669;42.678;23.332;2023-04-28T04:09:03;94921.47;;;4.26;100.00
13209;BME280;6669;42.678;23.332;2023-04-28T04:11:31;94909.69;;;4.23;100.00
13209;BME280;6669;42.678;23.332;2023-04-28T04:13:59;94913.38;;;4.31;100.00
13209;BME280;6669;42.678;23.332;2023-04-28T04:16:27;94917.34;;;4.35;100.00
13209;BME280;6669;42.678;23.332;2023-04-28T04:18:56;94924.69;;;4.39;100.00
13209;BME280;6669;42.678;23.332;2023-04-28T04:21:24;94929.00;;;4.39;100.00
13209;BME280;6669;42.678;23.332;2023-04-28T04:23:53;94934.28;;;4.37;100.00
13209;BME280;6669;42.678;23.332;2023-04-28T04:26:21;94933.34;;;4.38;100.00
13209;BME280;6669;42.678;23.332;2023-04-28T04:28:49;94939.56;;;4.36;100.00
13209;BME280;6669;42.678;23.332;2023-04-28T04:31:17;94929.41;;;4.34;100.00
13209;BME280;6669;42.678;23.332;2023-04-28T04:33:46;94944.44;;;4.39;100.00
13209;BME280;6669;42.678;23.332;2023-04-28T04:36:15;94941.63;;;4.42;100.00
13209;BME280;6669;42.678;23.332;2023-04-28T04:38:43;94941.88;;;4.39;100.00
13209;BME280;6669;42.678;23.332;2023-04-28T04:41:11;94931.28;;;4.32;100.00
13209;BME280;6669;42.678;23.332;2023-04-28T04:43:39;94946.78;;;4.42;100.00
13209;BME280;6669;42.678;23.332;2023-04-28T04:46:07;94945.13;;;4.41;100.00
13209;BME280;6669;42.678;23.332;2023-04-28T04:48:35;94941.56;;;4.32;100.00
13209;BME280;6669;42.678;23.332;2023-04-28T04:51:03;94949.50;;;4.40;100.00
13209;BME280;6669;42.678;23.332;2023-04-28T04:53:32;94956.00;;;4.45;100.00
13209;BME280;6669;42.678;23.332;2023-04-28T04:56:00;94957.94;;;4.52;100.00
13209;BME280;6669;42.678;23.332;2023-04-28T04:58:29;94932.84;;;4.45;100.00
13209;BME280;6669;42.678;23.332;2023-04-28T05:00:57;94957.44;;;4.58;100.00
13209;BME280;6669;42.678;23.332;2023-04-28T05:03:25;94965.84;;;4.61;100.00
13209;BME280;6669;42.678;23.332;2023-04-28T05:05:53;94964.16;;;4.71;100.00
13209;BME280;6669;42.678;23.332;2023-04-28T05:08:21;94964.19;;;4.81;100.00
13209;BME280;6669;42.678;23.332;2023-04-28T05:10:50;94973.25;;;4.75;100.00
13209;BME280;6669;42.678;23.332;2023-04-28T05:13:18;94966.84;;;4.69;100.00
13209;BME280;6669;42.678;23.332;2023-04-28T05:15:46;94975.97;;;4.73;100.00
13209;BME280;6669;42.678;23.332;2023-04-28T05:18:14;94971.63;;;4.74;100.00
13209;BME280;6669;42.678;23.332;2023-04-28T05:20:42;94978.72;;;4.82;100.00
13209;BME280;6669;42.678;23.332;2023-04-28T05:23:10;94968.84;;;4.87;100.00
13209;BME280;6669;42.678;23.332;2023-04-28T05:25:39;94977.56;;;4.96;100.00
13209;BME280;6669;42.678;23.332;2023-04-28T05:28:08;94972.84;;;5.01;100.00
13209;BME280;6669;42.678;23.332;2023-04-28T05:30:37;94972.75;;;5.12;100.00
13209;BME280;6669;42.678;23.332;2023-04-28T05:33:04;94972.09;;;5.20;100.00
13209;BME280;6669;42.678;23.332;2023-04-28T05:35:32;94960.72;;;5.22;100.00
13209;BME280;6669;42.678;23.332;2023-04-28T05:38:00;94969.00;;;5.26;100.00
13209;BME280;6669;42.678;23.332;2023-04-28T05:40:28;94963.56;;;5.29;100.00
13209;BME280;6669;42.678;23.332;2023-04-28T05:42:56;94958.84;;;5.34;100.00
13209;BME280;6669;42.678;23.332;2023-04-28T05:45:26;94958.47;;;5.39;100.00
13209;BME280;6669;42.678;23.332;2023-04-28T05:47:54;94960.00;;;5.51;100.00
13209;BME280;6669;42.678;23.332;2023-04-28T05:50:22;94968.00;;;5.58;100.00
13209;BME280;6669;42.678;23.332;2023-04-28T05:52:51;94959.88;;;5.72;100.00
13209;BME280;6669;42.678;23.332;2023-04-28T05:55:20;94958.69;;;5.77;100.00
13209;BME280;6669;42.678;23.332;2023-04-28T05:57:48;94974.44;;;5.83;100.00
13209;BME280;6669;42.678;23.332;2023-04-28T06:00:19;94964.09;;;5.83;100.00
13209;BME280;6669;42.678;23.332;2023-04-28T06:02:49;94976.06;;;5.94;100.00
13209;BME280;6669;42.678;23.332;2023-04-28T06:05:17;94968.19;;;5.96;99.56
13209;BME280;6669;42.678;23.332;2023-04-28T06:07:46;94965.75;;;5.84;98.27
13209;BME280;6669;42.678;23.332;2023-04-28T06:10:16;94962.88;;;5.87;100.00
13209;BME280;6669;42.678;23.332;2023-04-28T06:12:44;94969.84;;;6.07;100.00
13209;BME280;6669;42.678;23.332;2023-04-28T06:15:12;94960.78;;;6.12;100.00
13209;BME280;6669;42.678;23.332;2023-04-28T06:17:41;94975.72;;;6.09;96.59
13209;BME280;6669;42.678;23.332;2023-04-28T06:20:13;94969.94;;;5.95;97.89
13209;BME280;6669;42.678;23.332;2023-04-28T06:22:42;94968.63;;;6.01;99.83
13209;BME280;6669;42.678;23.332;2023-04-28T06:25:11;94971.50;;;6.17;99.81
13209;BME280;6669;42.678;23.332;2023-04-28T06:27:39;94966.84;;;6.31;97.66
13209;BME280;6669;42.678;23.332;2023-04-28T06:30:07;94961.03;;;6.29;96.33
13209;BME280;6669;42.678;23.332;2023-04-28T06:32:35;94970.78;;;6.45;95.52
13209;BME280;6669;42.678;23.332;2023-04-28T06:35:05;94967.41;;;6.44;94.10
13209;BME280;6669;42.678;23.332;2023-04-28T06:37:34;94969.84;;;6.46;92.67
13209;BME280;6669;42.678;23.332;2023-04-28T06:40:02;94957.06;;;6.44;92.10
13209;BME280;6669;42.678;23.332;2023-04-28T06:42:31;94962.50;;;6.51;92.78
13209;BME280;6669;42.678;23.332;2023-04-28T06:45:00;94958.66;;;6.65;90.98
13209;BME280;6669;42.678;23.332;2023-04-28T06:47:28;94960.94;;;6.87;90.70
13209;BME280;6669;42.678;23.332;2023-04-28T06:49:56;94967.81;;;6.97;87.58
13209;BME280;6669;42.678;23.332;2023-04-28T06:52:24;94951.94;;;6.82;87.20
13209;BME280;6669;42.678;23.332;2023-04-28T06:55:07;94964.00;;;7.01;87.54
13209;BME280;6669;42.678;23.332;2023-04-28T06:57:36;94955.41;;;7.10;86.23
13209;BME280;6669;42.678;23.332;2023-04-28T07:00:05;94968.47;;;7.09;81.27
13209;BME280;6669;42.678;23.332;2023-04-28T07:02:33;94970.81;;;7.02;83.38
13209;BME280;6669;42.678;23.332;2023-04-28T07:05:03;94970.56;;;6.95;80.68
13209;BME280;6669;42.678;23.332;2023-04-28T07:07:31;94963.50;;;7.25;85.24
13209;BME280;6669;42.678;23.332;2023-04-28T07:09:59;94954.63;;;7.28;79.82
13209;BME280;6669;42.678;23.332;2023-04-28T07:12:29;94966.19;;;7.33;76.11
13209;BME280;6669;42.678;23.332;2023-04-28T07:14:56;94958.19;;;7.27;75.72
13209;BME280;6669;42.678;23.332;2023-04-28T07:17:24;94957.91;;;7.30;75.14
13209;BME280;6669;42.678;23.332;2023-04-28T07:19:52;94957.88;;;7.40;73.49
13209;BME280;6669;42.678;23.332;2023-04-28T07:22:21;94951.25;;;7.27;74.93
13209;BME280;6669;42.678;23.332;2023-04-28T07:24:49;94959.19;;;7.44;75.04
13209;BME280;6669;42.678;23.332;2023-04-28T07:27:17;94959.16;;;7.53;76.89
13209;BME280;6669;42.678;23.332;2023-04-28T07:29:46;94945.78;;;7.76;79.11
13209;BME280;6669;42.678;23.332;2023-04-28T07:32:15;94948.47;;;8.02;76.21
13209;BME280;6669;42.678;23.332;2023-04-28T07:34:43;94953.28;;;8.15;74.42
13209;BME280;6669;42.678;23.332;2023-04-28T07:37:11;94955.63;;;8.27;73.28
13209;BME280;6669;42.678;23.332;2023-04-28T07:39:39;94934.06;;;8.00;72.15
13209;BME280;6669;42.678;23.332;2023-04-28T07:42:07;94967.56;;;8.01;71.85
13209;BME280;6669;42.678;23.332;2023-04-28T07:44:35;94950.25;;;8.02;72.10
13209;BME280;6669;42.678;23.332;2023-04-28T07:47:05;94951.56;;;8.24;72.75
13209;BME280;6669;42.678;23.332;2023-04-28T07:49:33;94954.00;;;8.44;71.75
13209;BME280;6669;42.678;23.332;2023-04-28T07:52:01;94949.34;;;8.47;69.51
13209;BME280;6669;42.678;23.332;2023-04-28T07:54:29;94942.03;;;8.69;70.40
13209;BME280;6669;42.678;23.332;2023-04-28T07:56:57;94945.50;;;8.78;69.74
13209;BME280;6669;42.678;23.332;2023-04-28T07:59:25;94934.28;;;8.95;68.75
13209;BME280;6669;42.678;23.332;2023-04-28T08:01:53;94942.72;;;8.97;67.67
13209;BME280;6669;42.678;23.332;2023-04-28T08:04:22;94938.03;;;8.75;67.32
13209;BME280;6669;42.678;23.332;2023-04-28T08:06:52;94951.03;;;8.83;66.55
13209;BME280;6669;42.678;23.332;2023-04-28T08:09:20;94941.59;;;9.00;68.03
13209;BME280;6669;42.678;23.332;2023-04-28T08:11:48;94935.56;;;9.26;67.68
13209;BME280;6669;42.678;23.332;2023-04-28T08:14:16;94939.34;;;9.40;66.46
13209;BME280;6669;42.678;23.332;2023-04-28T08:16:44;94930.16;;;9.62;65.99
13209;BME280;6669;42.678;23.332;2023-04-28T08:19:12;94934.41;;;9.71;64.53
13209;BME280;6669;42.678;23.332;2023-04-28T08:21:42;94934.28;;;9.89;64.22
13209;BME280;6669;42.678;23.332;2023-04-28T08:24:10;94927.28;;;9.90;64.37
13209;BME280;6669;42.678;23.332;2023-04-28T08:26:39;94935.75;;;10.08;63.38
13209;BME280;6669;42.678;23.332;2023-04-28T08:29:07;94927.97;;;10.17;63.03
13209;BME280;6669;42.678;23.332;2023-04-28T08:31:35;94933.16;;;10.33;62.88
13209;BME280;6669;42.678;23.332;2023-04-28T08:34:03;94922.97;;;10.40;63.57
13209;BME280;6669;42.678;23.332;2023-04-28T08:36:33;94926.50;;;10.63;63.16
13209;BME280;6669;42.678;23.332;2023-04-28T08:39:03;94931.41;;;10.34;60.50
13209;BME280;6669;42.678;23.332;2023-04-28T08:41:37;94931.09;;;10.37;61.21
13209;BME280;6669;42.678;23.332;2023-04-28T08:44:07;94928.97;;;10.57;62.00
13209;BME280;6669;42.678;23.332;2023-04-28T08:46:38;94929.28;;;10.54;59.29
13209;BME280;6669;42.678;23.332;2023-04-28T08:49:12;94929.47;;;10.44;60.71
13209;BME280;6669;42.678;23.332;2023-04-28T08:51:44;94916.13;;;10.22;60.54
13209;BME280;6669;42.678;23.332;2023-04-28T08:54:15;94921.81;;;10.26;59.84
13209;BME280;6669;42.678;23.332;2023-04-28T08:56:53;94919.88;;;10.44;61.13
13209;BME280;6669;42.678;23.332;2023-04-28T08:59:22;94917.09;;;10.46;60.03
13209;BME280;6669;42.678;23.332;2023-04-28T09:01:50;94913.22;;;10.67;60.39
13209;BME280;6669;42.678;23.332;2023-04-28T09:04:19;94917.69;;;10.89;60.48
13209;BME280;6669;42.678;23.332;2023-04-28T09:06:48;94906.34;;;10.82;59.02
13209;BME280;6669;42.678;23.332;2023-04-28T09:09:21;94910.53;;;11.00;59.30
13209;BME280;6669;42.678;23.332;2023-04-28T09:11:54;94909.81;;;11.14;58.98
13209;BME280;6669;42.678;23.332;2023-04-28T09:14:24;94899.03;;;10.86;58.96
13209;BME280;6669;42.678;23.332;2023-04-28T09:16:53;94863.94;;;10.65;59.25
13209;BME280;6669;42.678;23.332;2023-04-28T09:19:21;94891.81;;;11.04;59.11
13209;BME280;6669;42.678;23.332;2023-04-28T09:21:51;94888.03;;;11.15;59.49
13209;BME280;6669;42.678;23.332;2023-04-28T09:24:28;94881.31;;;11.29;58.10
13209;BME280;6669;42.678;23.332;2023-04-28T09:26:56;94870.06;;;11.28;57.16
13209;BME280;6669;42.678;23.332;2023-04-28T09:29:25;94888.81;;;11.55;58.19
13209;BME280;6669;42.678;23.332;2023-04-28T09:31:53;94889.06;;;11.69;57.77
13209;BME280;6669;42.678;23.332;2023-04-28T09:34:21;94889.44;;;11.89;57.33
13209;BME280;6669;42.678;23.332;2023-04-28T09:36:49;94872.41;;;11.47;56.27
13209;BME280;6669;42.678;23.332;2023-04-28T09:39:29;94879.38;;;11.23;56.50
13209;BME280;6669;42.678;23.332;2023-04-28T09:41:57;94881.53;;;11.11;56.57
13209;BME280;6669;42.678;23.332;2023-04-28T09:44:29;94878.94;;;11.11;56.61
13209;BME280;6669;42.678;23.332;2023-04-28T09:46:57;94872.13;;;11.10;56.49
13209;BME280;6669;42.678;23.332;2023-04-28T09:49:24;94872.97;;;11.34;56.68
13209;BME280;6669;42.678;23.332;2023-04-28T09:51:53;94862.09;;;11.61;56.65
13209;BME280;6669;42.678;23.332;2023-04-28T09:54:21;94854.56;;;11.67;56.04
13209;BME280;6669;42.678;23.332;2023-04-28T09:56:52;94859.38;;;11.78;55.16
13209;BME280;6669;42.678;23.332;2023-04-28T09:59:21;94852.41;;;12.02;56.18
13209;BME280;6669;42.678;23.332;2023-04-28T10:01:49;94848.00;;;12.02;54.65
13209;BME280;6669;42.678;23.332;2023-04-28T10:04:18;94854.19;;;12.24;54.68
13209;BME280;6669;42.678;23.332;2023-04-28T10:06:48;94840.16;;;12.25;54.34
13209;BME280;6669;42.678;23.332;2023-04-28T10:09:16;94827.22;;;12.47;52.96
13209;BME280;6669;42.678;23.332;2023-04-28T10:11:53;94840.31;;;12.24;52.95
13209;BME280;6669;42.678;23.332;2023-04-28T10:14:22;94846.09;;;12.19;52.36
13209;BME280;6669;42.678;23.332;2023-04-28T10:16:51;94824.75;;;11.92;54.17
13209;BME280;6669;42.678;23.332;2023-04-28T10:19:20;94840.66;;;12.06;54.07
13209;BME280;6669;42.678;23.332;2023-04-28T10:21:55;94834.59;;;12.29;53.26
13209;BME280;6669;42.678;23.332;2023-04-28T10:24:28;94836.50;;;12.65;54.03
13209;BME280;6669;42.678;23.332;2023-04-28T10:27:04;94840.31;;;12.92;52.96
13209;BME280;6669;42.678;23.332;2023-04-28T10:29:34;94804.56;;;13.07;53.10
13209;BME280;6669;42.678;23.332;2023-04-28T10:32:20;94836.59;;;13.01;51.95
13209;BME280;6669;42.678;23.332;2023-04-28T10:34:49;94823.19;;;13.56;51.63
13209;BME280;6669;42.678;23.332;2023-04-28T10:37:17;94835.38;;;13.92;50.57
13209;BME280;6669;42.678;23.332;2023-04-28T10:42:53;94810.66;;;15.15;50.07
13209;BME280;6669;42.678;23.332;2023-04-28T10:45:59;94812.22;;;15.78;48.98
13209;BME280;6669;42.678;23.332;2023-04-28T10:51:33;94782.66;;;16.24;48.08
13209;BME280;6669;42.678;23.332;2023-04-28T10:54:14;94802.72;;;16.84;47.57
13209;BME280;6669;42.678;23.332;2023-04-28T10:57:19;94792.56;;;17.08;46.38
13209;BME280;6669;42.678;23.332;2023-04-28T10:59:50;94789.38;;;16.86;44.59
13209;BME280;6669;42.678;23.332;2023-04-28T11:02:38;94790.00;;;16.94;44.84
13209;BME280;6669;42.678;23.332;2023-04-28T11:05:14;94779.31;;;17.35;45.00
13209;BME280;6669;42.678;23.332;2023-04-28T11:11:15;94781.56;;;17.24;43.76
13209;BME280;6669;42.678;23.332;2023-04-28T11:13:43;94778.72;;;16.74;44.96
13209;BME280;6669;42.678;23.332;2023-04-28T11:16:16;94782.78;;;16.63;44.13
13209;BME280;6669;42.678;23.332;2023-04-28T11:18:49;94774.53;;;16.53;44.69
13209;BME280;6669;42.678;23.332;2023-04-28T11:21:23;94777.56;;;16.43;44.24
13209;BME280;6669;42.678;23.332;2023-04-28T11:23:51;94759.84;;;17.04;44.34
13209;BME280;6669;42.678;23.332;2023-04-28T11:26:20;94764.56;;;17.34;44.32
13209;BME280;6669;42.678;23.332;2023-04-28T11:28:51;94761.44;;;17.50;44.10
13209;BME280;6669;42.678;23.332;2023-04-28T11:31:22;94770.97;;;18.08;43.46
13209;BME280;6669;42.678;23.332;2023-04-28T11:33:57;94757.75;;;17.58;42.38
13209;BME280;6669;42.678;23.332;2023-04-28T11:36:28;94760.34;;;17.32;42.59
13209;BME280;6669;42.678;23.332;2023-04-28T11:38:57;94756.38;;;17.55;42.21
13209;BME280;6669;42.678;23.332;2023-04-28T11:41:26;94748.53;;;17.42;41.53
13209;BME280;6669;42.678;23.332;2023-04-28T11:43:54;94752.53;;;18.08;42.31
13209;BME280;6669;42.678;23.332;2023-04-28T11:46:24;94740.78;;;18.11;41.49
13209;BME280;6669;42.678;23.332;2023-04-28T11:49:03;94743.78;;;18.77;42.06
13209;BME280;6669;42.678;23.332;2023-04-28T11:51:35;94738.06;;;19.17;41.53
13209;BME280;6669;42.678;23.332;2023-04-28T11:54:05;94735.78;;;19.21;41.12
13209;BME280;6669;42.678;23.332;2023-04-28T11:56:37;94748.59;;;19.17;42.07
13209;BME280;6669;42.678;23.332;2023-04-28T11:59:07;94748.53;;;18.87;41.96
13209;BME280;6669;42.678;23.332;2023-04-28T12:01:46;94738.25;;;19.34;41.22
13209;BME280;6669;42.678;23.332;2023-04-28T12:04:24;94733.59;;;19.48;42.12
13209;BME280;6669;42.678;23.332;2023-04-28T12:07:01;94733.75;;;19.96;42.06
13209;BME280;6669;42.678;23.332;2023-04-28T12:09:29;94726.38;;;20.33;41.52
13209;BME280;6669;42.678;23.332;2023-04-28T12:11:59;94716.06;;;20.44;40.95
13209;BME280;6669;42.678;23.332;2023-04-28T12:14:28;94718.31;;;20.64;41.00
13209;BME280;6669;42.678;23.332;2023-04-28T12:16:59;94720.72;;;20.65;40.48
13209;BME280;6669;42.678;23.332;2023-04-28T12:19:27;94712.75;;;20.36;40.66
13209;BME280;6669;42.678;23.332;2023-04-28T12:21:59;94700.66;;;20.52;41.68
13209;BME280;6669;42.678;23.332;2023-04-28T12:24:28;94702.75;;;20.27;41.41
13209;BME280;6669;42.678;23.332;2023-04-28T12:27:14;94703.16;;;20.83;41.26
13209;BME280;6669;42.678;23.332;2023-04-28T12:29:43;94694.47;;;20.47;41.47
13209;BME280;6669;42.678;23.332;2023-04-28T12:32:14;94703.56;;;20.39;41.74
13209;BME280;6669;42.678;23.332;2023-04-28T12:34:44;94691.59;;;20.48;41.24
13209;BME280;6669;42.678;23.332;2023-04-28T12:37:12;94701.78;;;20.68;41.15
13209;BME280;6669;42.678;23.332;2023-04-28T12:39:40;94697.69;;;20.49;40.53
13209;BME280;6669;42.678;23.332;2023-04-28T12:42:09;94687.16;;;20.89;40.28
13209;BME280;6669;42.678;23.332;2023-04-28T12:44:37;94696.78;;;20.07;40.61
13209;BME280;6669;42.678;23.332;2023-04-28T12:47:07;94685.66;;;20.29;40.84
13209;BME280;6669;42.678;23.332;2023-04-28T12:49:38;94697.00;;;20.30;41.05
13209;BME280;6669;42.678;23.332;2023-04-28T12:52:07;94692.75;;;19.93;40.87
13209;BME280;6669;42.678;23.332;2023-04-28T12:54:35;94679.00;;;20.15;40.96
13209;BME280;6669;42.678;23.332;2023-04-28T12:57:03;94678.09;;;19.97;40.32
13209;BME280;6669;42.678;23.332;2023-04-28T12:59:32;94673.38;;;19.87;42.30
13209;BME280;6669;42.678;23.332;2023-04-28T13:02:00;94661.44;;;19.73;41.48
13209;BME280;6669;42.678;23.332;2023-04-28T13:04:28;94661.91;;;19.93;41.28
13209;BME280;6669;42.678;23.332;2023-04-28T13:06:58;94667.22;;;20.70;41.40
13209;BME280;6669;42.678;23.332;2023-04-28T13:09:26;94652.13;;;20.94;41.12
13209;BME280;6669;42.678;23.332;2023-04-28T13:11:55;94658.84;;;20.73;41.15
13209;BME280;6669;42.678;23.332;2023-04-28T13:14:23;94661.31;;;21.20;40.44
13209;BME280;6669;42.678;23.332;2023-04-28T13:16:53;94660.75;;;20.13;41.21
13209;BME280;6669;42.678;23.332;2023-04-28T13:19:21;94655.81;;;20.29;40.76
13209;BME280;6669;42.678;23.332;2023-04-28T13:21:49;94655.66;;;20.71;40.67
13209;BME280;6669;42.678;23.332;2023-04-28T13:24:19;94646.91;;;20.58;40.32